sensor_id;sensor_type;location;lat;lon;timestamp;P1;durP1;ratioP1;P2;durP2;ratioP2
73627;SDS011;61923;51.846;5.856;2023-02-18T00:00:26;3.30;;;1.30;;
73627;SDS011;61923;51.846;5.856;2023-02-18T00:02:52;1.65;;;0.90;;
73627;SDS011;61923;51.846;5.856;2023-02-18T00:05:22;2.53;;;1.27;;
73627;SDS011;61923;51.846;5.856;2023-02-18T00:07:47;1.95;;;1.00;;
73627;SDS011;61923;51.846;5.856;2023-02-18T00:12:44;1.60;;;0.90;;
73627;SDS011;61923;51.846;5.856;2023-02-18T00:15:10;1.95;;;1.17;;
73627;SDS011;61923;51.846;5.856;2023-02-18T00:20:01;2.03;;;1.30;;
73627;SDS011;61923;51.846;5.856;2023-02-18T00:24:51;2.03;;;1.03;;
73627;SDS011;61923;51.846;5.856;2023-02-18T00:29:43;2.53;;;1.13;;
73627;SDS011;61923;51.846;5.856;2023-02-18T00:32:08;3.17;;;1.23;;
73627;SDS011;61923;51.846;5.856;2023-02-18T00:34:33;2.10;;;0.90;;
73627;SDS011;61923;51.846;5.856;2023-02-18T00:36:59;2.47;;;1.13;;
73627;SDS011;61923;51.846;5.856;2023-02-18T00:41:49;3.37;;;1.30;;
73627;SDS011;61923;51.846;5.856;2023-02-18T00:44:15;2.95;;;1.30;;
73627;SDS011;61923;51.846;5.856;2023-02-18T00:46:45;3.25;;;1.33;;
73627;SDS011;61923;51.846;5.856;2023-02-18T00:49:20;3.60;;;1.10;;
73627;SDS011;61923;51.846;5.856;2023-02-18T00:54:11;2.70;;;1.10;;
73627;SDS011;61923;51.846;5.856;2023-02-18T00:59:04;2.65;;;1.00;;
73627;SDS011;61923;51.846;5.856;2023-02-18T01:03:55;2.20;;;0.93;;
73627;SDS011;61923;51.846;5.856;2023-02-18T01:06:20;4.47;;;1.30;;
73627;SDS011;61923;51.846;5.856;2023-02-18T01:08:49;3.33;;;1.10;;
73627;SDS011;61923;51.846;5.856;2023-02-18T01:13:40;2.10;;;1.02;;
73627;SDS011;61923;51.846;5.856;2023-02-18T01:16:06;2.58;;;1.10;;
73627;SDS011;61923;51.846;5.856;2023-02-18T01:18:33;2.85;;;1.40;;
73627;SDS011;61923;51.846;5.856;2023-02-18T01:20:59;1.85;;;1.10;;
73627;SDS011;61923;51.846;5.856;2023-02-18T01:23:24;1.77;;;1.00;;
73627;SDS011;61923;51.846;5.856;2023-02-18T01:28:15;4.55;;;1.38;;
73627;SDS011;61923;51.846;5.856;2023-02-18T01:30:42;2.47;;;1.27;;
73627;SDS011;61923;51.846;5.856;2023-02-18T01:35:36;3.17;;;1.50;;
73627;SDS011;61923;51.846;5.856;2023-02-18T01:38:02;3.30;;;1.30;;
73627;SDS011;61923;51.846;5.856;2023-02-18T01:40:28;1.73;;;1.10;;
73627;SDS011;61923;51.846;5.856;2023-02-18T01:42:54;2.47;;;1.42;;
73627;SDS011;61923;51.846;5.856;2023-02-18T01:45:36;5.15;;;1.50;;
73627;SDS011;61923;51.846;5.856;2023-02-18T01:48:30;4.40;;;1.27;;
73627;SDS011;61923;51.846;5.856;2023-02-18T01:51:04;2.85;;;1.25;;
73627;SDS011;61923;51.846;5.856;2023-02-18T01:53:40;2.88;;;1.10;;
73627;SDS011;61923;51.846;5.856;2023-02-18T01:56:17;2.78;;;1.20;;
73627;SDS011;61923;51.846;5.856;2023-02-18T01:58:48;5.03;;;1.50;;
73627;SDS011;61923;51.846;5.856;2023-02-18T02:01:16;3.85;;;1.30;;
73627;SDS011;61923;51.846;5.856;2023-02-18T02:06:15;3.40;;;1.50;;
73627;SDS011;61923;51.846;5.856;2023-02-18T02:08:43;3.65;;;1.60;;
73627;SDS011;61923;51.846;5.856;2023-02-18T02:35:50;2.30;;;1.40;;
73627;SDS011;61923;51.846;5.856;2023-02-18T02:38:18;2.97;;;1.58;;
73627;SDS011;61923;51.846;5.856;2023-02-18T02:46:39;3.05;;;1.50;;
73627;SDS011;61923;51.846;5.856;2023-02-18T02:49:13;3.95;;;1.88;;
73627;SDS011;61923;51.846;5.856;2023-02-18T02:51:53;2.58;;;1.60;;
73627;SDS011;61923;51.846;5.856;2023-02-18T02:54:37;2.83;;;1.83;;
73627;SDS011;61923;51.846;5.856;2023-02-18T02:59:57;2.20;;;1.30;;
73627;SDS011;61923;51.846;5.856;2023-02-18T03:11:01;3.90;;;1.88;;
73627;SDS011;61923;51.846;5.856;2023-02-18T03:16:34;3.38;;;1.33;;
73627;SDS011;61923;51.846;5.856;2023-02-18T03:19:25;3.78;;;1.35;;
73627;SDS011;61923;51.846;5.856;2023-02-18T03:21:57;2.10;;;1.25;;
73627;SDS011;61923;51.846;5.856;2023-02-18T03:24:28;2.67;;;1.70;;
73627;SDS011;61923;51.846;5.856;2023-02-18T03:27:05;4.00;;;1.50;;
73627;SDS011;61923;51.846;5.856;2023-02-18T03:29:36;3.58;;;1.55;;
73627;SDS011;61923;51.846;5.856;2023-02-18T03:32:04;3.38;;;1.70;;
73627;SDS011;61923;51.846;5.856;2023-02-18T03:34:37;2.83;;;1.40;;
73627;SDS011;61923;51.846;5.856;2023-02-18T03:37:10;3.33;;;1.63;;
73627;SDS011;61923;51.846;5.856;2023-02-18T03:39:47;4.22;;;1.75;;
73627;SDS011;61923;51.846;5.856;2023-02-18T03:42:26;3.83;;;1.73;;
73627;SDS011;61923;51.846;5.856;2023-02-18T03:44:52;3.35;;;1.65;;
73627;SDS011;61923;51.846;5.856;2023-02-18T03:47:17;3.25;;;1.77;;
73627;SDS011;61923;51.846;5.856;2023-02-18T03:49:43;2.63;;;1.60;;
73627;SDS011;61923;51.846;5.856;2023-02-18T03:52:08;3.77;;;1.77;;
73627;SDS011;61923;51.846;5.856;2023-02-18T03:54:35;3.47;;;1.67;;
73627;SDS011;61923;51.846;5.856;2023-02-18T03:57:07;2.88;;;1.45;;
73627;SDS011;61923;51.846;5.856;2023-02-18T04:00:19;4.55;;;2.10;;
73627;SDS011;61923;51.846;5.856;2023-02-18T04:02:45;3.67;;;1.63;;
73627;SDS011;61923;51.846;5.856;2023-02-18T04:07:37;3.13;;;1.60;;
73627;SDS011;61923;51.846;5.856;2023-02-18T04:12:29;5.13;;;2.10;;
73627;SDS011;61923;51.846;5.856;2023-02-18T04:14:55;3.10;;;1.73;;
73627;SDS011;61923;51.846;5.856;2023-02-18T04:19:50;3.03;;;1.50;;
73627;SDS011;61923;51.846;5.856;2023-02-18T04:22:16;3.90;;;1.60;;
73627;SDS011;61923;51.846;5.856;2023-02-18T04:24:41;3.25;;;1.40;;
73627;SDS011;61923;51.846;5.856;2023-02-18T04:27:07;2.70;;;1.40;;
73627;SDS011;61923;51.846;5.856;2023-02-18T04:29:35;3.75;;;1.75;;
73627;SDS011;61923;51.846;5.856;2023-02-18T04:32:01;3.72;;;1.83;;
73627;SDS011;61923;51.846;5.856;2023-02-18T04:34:26;4.68;;;2.05;;
73627;SDS011;61923;51.846;5.856;2023-02-18T04:36:51;4.10;;;1.70;;
73627;SDS011;61923;51.846;5.856;2023-02-18T04:39:17;4.38;;;1.90;;
73627;SDS011;61923;51.846;5.856;2023-02-18T04:41:42;4.38;;;1.80;;
73627;SDS011;61923;51.846;5.856;2023-02-18T04:44:08;3.73;;;2.17;;
73627;SDS011;61923;51.846;5.856;2023-02-18T04:46:33;4.60;;;2.20;;
73627;SDS011;61923;51.846;5.856;2023-02-18T04:48:59;3.53;;;1.87;;
73627;SDS011;61923;51.846;5.856;2023-02-18T04:51:24;3.93;;;1.70;;
73627;SDS011;61923;51.846;5.856;2023-02-18T04:53:49;3.97;;;1.92;;
73627;SDS011;61923;51.846;5.856;2023-02-18T04:58:40;4.70;;;1.97;;
73627;SDS011;61923;51.846;5.856;2023-02-18T05:01:05;3.45;;;1.77;;
73627;SDS011;61923;51.846;5.856;2023-02-18T05:03:31;3.15;;;1.67;;
73627;SDS011;61923;51.846;5.856;2023-02-18T05:05:56;3.40;;;1.73;;
73627;SDS011;61923;51.846;5.856;2023-02-18T05:08:22;3.95;;;2.10;;
73627;SDS011;61923;51.846;5.856;2023-02-18T05:10:47;3.42;;;1.90;;
73627;SDS011;61923;51.846;5.856;2023-02-18T05:13:13;4.03;;;2.00;;
73627;SDS011;61923;51.846;5.856;2023-02-18T05:15:39;3.10;;;2.00;;
73627;SDS011;61923;51.846;5.856;2023-02-18T05:18:04;4.50;;;1.73;;
73627;SDS011;61923;51.846;5.856;2023-02-18T05:20:30;3.88;;;1.73;;
73627;SDS011;61923;51.846;5.856;2023-02-18T05:25:20;2.37;;;1.33;;
73627;SDS011;61923;51.846;5.856;2023-02-18T05:27:46;3.50;;;1.65;;
73627;SDS011;61923;51.846;5.856;2023-02-18T05:32:37;2.15;;;1.48;;
73627;SDS011;61923;51.846;5.856;2023-02-18T05:35:02;3.15;;;1.75;;
73627;SDS011;61923;51.846;5.856;2023-02-18T05:37:28;2.95;;;1.80;;
73627;SDS011;61923;51.846;5.856;2023-02-18T05:39:53;2.93;;;1.50;;
73627;SDS011;61923;51.846;5.856;2023-02-18T05:42:19;3.10;;;1.60;;
73627;SDS011;61923;51.846;5.856;2023-02-18T05:44:45;3.75;;;2.25;;
73627;SDS011;61923;51.846;5.856;2023-02-18T05:47:11;2.95;;;1.48;;
73627;SDS011;61923;51.846;5.856;2023-02-18T05:49:37;3.15;;;1.52;;
73627;SDS011;61923;51.846;5.856;2023-02-18T05:52:04;2.53;;;1.50;;
73627;SDS011;61923;51.846;5.856;2023-02-18T05:54:30;2.92;;;1.50;;
73627;SDS011;61923;51.846;5.856;2023-02-18T05:59:21;5.97;;;1.70;;
73627;SDS011;61923;51.846;5.856;2023-02-18T06:01:47;2.92;;;1.38;;
73627;SDS011;61923;51.846;5.856;2023-02-18T06:04:12;2.92;;;1.50;;
73627;SDS011;61923;51.846;5.856;2023-02-18T06:06:38;3.90;;;1.55;;
73627;SDS011;61923;51.846;5.856;2023-02-18T06:09:04;2.40;;;1.27;;
73627;SDS011;61923;51.846;5.856;2023-02-18T06:13:55;3.63;;;1.40;;
73627;SDS011;61923;51.846;5.856;2023-02-18T06:16:21;2.20;;;1.50;;
73627;SDS011;61923;51.846;5.856;2023-02-18T06:18:46;2.47;;;1.55;;
73627;SDS011;61923;51.846;5.856;2023-02-18T06:21:12;2.83;;;1.58;;
73627;SDS011;61923;51.846;5.856;2023-02-18T06:26:03;3.73;;;1.70;;
73627;SDS011;61923;51.846;5.856;2023-02-18T06:28:28;3.00;;;1.60;;
73627;SDS011;61923;51.846;5.856;2023-02-18T06:30:53;2.67;;;1.55;;
73627;SDS011;61923;51.846;5.856;2023-02-18T06:33:20;3.38;;;1.33;;
73627;SDS011;61923;51.846;5.856;2023-02-18T06:35:55;2.92;;;1.45;;
73627;SDS011;61923;51.846;5.856;2023-02-18T06:38:26;3.47;;;1.52;;
73627;SDS011;61923;51.846;5.856;2023-02-18T06:40:53;3.25;;;1.48;;
73627;SDS011;61923;51.846;5.856;2023-02-18T06:43:19;3.40;;;1.60;;
73627;SDS011;61923;51.846;5.856;2023-02-18T06:48:10;2.55;;;1.52;;
73627;SDS011;61923;51.846;5.856;2023-02-18T06:53:02;2.30;;;1.13;;
73627;SDS011;61923;51.846;5.856;2023-02-18T06:55:27;3.28;;;1.42;;
73627;SDS011;61923;51.846;5.856;2023-02-18T06:57:53;2.95;;;1.30;;
73627;SDS011;61923;51.846;5.856;2023-02-18T07:00:18;2.77;;;1.50;;
73627;SDS011;61923;51.846;5.856;2023-02-18T07:02:44;2.40;;;1.40;;
73627;SDS011;61923;51.846;5.856;2023-02-18T07:05:09;3.17;;;1.50;;
73627;SDS011;61923;51.846;5.856;2023-02-18T07:10:00;2.17;;;1.07;;
73627;SDS011;61923;51.846;5.856;2023-02-18T07:14:51;2.65;;;1.30;;
73627;SDS011;61923;51.846;5.856;2023-02-18T07:17:16;2.03;;;1.20;;
73627;SDS011;61923;51.846;5.856;2023-02-18T07:19:42;2.17;;;1.10;;
73627;SDS011;61923;51.846;5.856;2023-02-18T07:22:07;2.20;;;1.42;;
73627;SDS011;61923;51.846;5.856;2023-02-18T07:24:33;2.13;;;1.05;;
73627;SDS011;61923;51.846;5.856;2023-02-18T07:26:58;2.60;;;1.30;;
73627;SDS011;61923;51.846;5.856;2023-02-18T07:29:23;2.73;;;1.40;;
73627;SDS011;61923;51.846;5.856;2023-02-18T07:31:49;2.10;;;1.20;;
73627;SDS011;61923;51.846;5.856;2023-02-18T07:34:18;2.85;;;1.17;;
73627;SDS011;61923;51.846;5.856;2023-02-18T07:39:08;2.43;;;1.00;;
73627;SDS011;61923;51.846;5.856;2023-02-18T07:44:02;1.75;;;1.13;;
73627;SDS011;61923;51.846;5.856;2023-02-18T07:48:53;2.03;;;1.10;;
73627;SDS011;61923;51.846;5.856;2023-02-18T07:51:19;1.63;;;0.93;;
73627;SDS011;61923;51.846;5.856;2023-02-18T07:56:09;2.97;;;1.10;;
73627;SDS011;61923;51.846;5.856;2023-02-18T07:58:36;2.40;;;1.17;;
73627;SDS011;61923;51.846;5.856;2023-02-18T08:01:04;1.55;;;1.00;;
73627;SDS011;61923;51.846;5.856;2023-02-18T08:03:34;2.55;;;1.10;;
73627;SDS011;61923;51.846;5.856;2023-02-18T08:08:27;1.75;;;1.00;;
73627;SDS011;61923;51.846;5.856;2023-02-18T08:10:55;2.05;;;1.15;;
73627;SDS011;61923;51.846;5.856;2023-02-18T08:13:22;2.33;;;1.17;;
73627;SDS011;61923;51.846;5.856;2023-02-18T08:18:14;1.77;;;1.00;;
73627;SDS011;61923;51.846;5.856;2023-02-18T08:20:41;2.17;;;1.10;;
73627;SDS011;61923;51.846;5.856;2023-02-18T08:25:32;1.77;;;1.00;;
73627;SDS011;61923;51.846;5.856;2023-02-18T08:30:23;1.73;;;1.10;;
73627;SDS011;61923;51.846;5.856;2023-02-18T08:32:48;1.55;;;0.98;;
73627;SDS011;61923;51.846;5.856;2023-02-18T08:37:39;1.93;;;1.00;;
73627;SDS011;61923;51.846;5.856;2023-02-18T08:40:05;2.60;;;1.23;;
73627;SDS011;61923;51.846;5.856;2023-02-18T08:42:31;2.75;;;0.95;;
73627;SDS011;61923;51.846;5.856;2023-02-18T08:47:22;1.50;;;0.97;;
73627;SDS011;61923;51.846;5.856;2023-02-18T08:49:47;2.33;;;1.08;;
73627;SDS011;61923;51.846;5.856;2023-02-18T08:52:13;1.40;;;0.90;;
73627;SDS011;61923;51.846;5.856;2023-02-18T08:57:03;2.17;;;1.20;;
73627;SDS011;61923;51.846;5.856;2023-02-18T08:59:29;2.05;;;1.20;;
73627;SDS011;61923;51.846;5.856;2023-02-18T09:01:54;1.92;;;1.08;;
73627;SDS011;61923;51.846;5.856;2023-02-18T09:06:48;2.00;;;1.07;;
73627;SDS011;61923;51.846;5.856;2023-02-18T09:09:14;1.80;;;1.13;;
73627;SDS011;61923;51.846;5.856;2023-02-18T09:11:41;2.45;;;1.23;;
73627;SDS011;61923;51.846;5.856;2023-02-18T09:14:06;2.53;;;1.27;;
73627;SDS011;61923;51.846;5.856;2023-02-18T09:16:32;1.92;;;1.00;;
73627;SDS011;61923;51.846;5.856;2023-02-18T09:21:22;1.48;;;0.90;;
73627;SDS011;61923;51.846;5.856;2023-02-18T09:23:49;2.92;;;0.90;;
73627;SDS011;61923;51.846;5.856;2023-02-18T09:26:16;2.65;;;1.10;;
73627;SDS011;61923;51.846;5.856;2023-02-18T09:28:42;1.30;;;0.80;;
73627;SDS011;61923;51.846;5.856;2023-02-18T09:33:37;2.42;;;1.00;;
73627;SDS011;61923;51.846;5.856;2023-02-18T09:36:03;1.45;;;1.10;;
73627;SDS011;61923;51.846;5.856;2023-02-18T09:40:54;4.73;;;1.13;;
73627;SDS011;61923;51.846;5.856;2023-02-18T09:43:28;2.60;;;1.30;;
73627;SDS011;61923;51.846;5.856;2023-02-18T09:45:57;2.10;;;1.08;;
73627;SDS011;61923;51.846;5.856;2023-02-18T09:48:26;2.13;;;0.90;;
73627;SDS011;61923;51.846;5.856;2023-02-18T09:50:55;2.80;;;1.05;;
73627;SDS011;61923;51.846;5.856;2023-02-18T09:53:21;2.20;;;1.10;;
73627;SDS011;61923;51.846;5.856;2023-02-18T09:55:47;1.67;;;0.98;;
73627;SDS011;61923;51.846;5.856;2023-02-18T09:58:16;1.88;;;1.08;;
73627;SDS011;61923;51.846;5.856;2023-02-18T10:00:46;2.75;;;1.02;;
73627;SDS011;61923;51.846;5.856;2023-02-18T10:03:16;6.45;;;1.02;;
73627;SDS011;61923;51.846;5.856;2023-02-18T10:13:45;5.57;;;1.20;;
73627;SDS011;61923;51.846;5.856;2023-02-18T10:16:15;1.95;;;1.10;;
73627;SDS011;61923;51.846;5.856;2023-02-18T10:18:43;3.10;;;1.30;;
73627;SDS011;61923;51.846;5.856;2023-02-18T10:21:11;4.03;;;1.23;;
73627;SDS011;61923;51.846;5.856;2023-02-18T10:23:41;3.80;;;1.35;;
73627;SDS011;61923;51.846;5.856;2023-02-18T10:26:14;2.40;;;1.08;;
73627;SDS011;61923;51.846;5.856;2023-02-18T10:28:42;2.83;;;1.10;;
73627;SDS011;61923;51.846;5.856;2023-02-18T10:31:09;2.13;;;0.98;;
73627;SDS011;61923;51.846;5.856;2023-02-18T10:41:26;1.75;;;1.05;;
73627;SDS011;61923;51.846;5.856;2023-02-18T10:52:28;3.65;;;1.30;;
73627;SDS011;61923;51.846;5.856;2023-02-18T10:55:02;3.20;;;1.10;;
73627;SDS011;61923;51.846;5.856;2023-02-18T10:57:30;6.22;;;1.10;;
73627;SDS011;61923;51.846;5.856;2023-02-18T11:02:37;3.78;;;1.30;;
73627;SDS011;61923;51.846;5.856;2023-02-18T11:05:22;3.53;;;1.17;;
73627;SDS011;61923;51.846;5.856;2023-02-18T11:07:50;3.70;;;1.30;;
73627;SDS011;61923;51.846;5.856;2023-02-18T11:12:56;8.50;;;1.85;;
73627;SDS011;61923;51.846;5.856;2023-02-18T11:15:25;5.18;;;1.55;;
73627;SDS011;61923;51.846;5.856;2023-02-18T11:17:55;6.05;;;1.42;;
73627;SDS011;61923;51.846;5.856;2023-02-18T11:20:36;4.60;;;1.58;;
73627;SDS011;61923;51.846;5.856;2023-02-18T11:25:31;6.25;;;1.40;;
73627;SDS011;61923;51.846;5.856;2023-02-18T11:28:00;3.90;;;1.38;;
73627;SDS011;61923;51.846;5.856;2023-02-18T11:30:38;6.95;;;1.50;;
73627;SDS011;61923;51.846;5.856;2023-02-18T11:35:51;6.07;;;1.50;;
73627;SDS011;61923;51.846;5.856;2023-02-18T11:38:28;5.18;;;1.50;;
73627;SDS011;61923;51.846;5.856;2023-02-18T11:41:06;5.53;;;1.40;;
73627;SDS011;61923;51.846;5.856;2023-02-18T11:43:36;4.15;;;1.38;;
73627;SDS011;61923;51.846;5.856;2023-02-18T11:48:39;7.55;;;2.00;;
73627;SDS011;61923;51.846;5.856;2023-02-18T11:51:05;3.00;;;1.35;;
73627;SDS011;61923;51.846;5.856;2023-02-18T11:53:37;8.13;;;2.83;;
73627;SDS011;61923;51.846;5.856;2023-02-18T11:56:05;3.78;;;1.20;;
73627;SDS011;61923;51.846;5.856;2023-02-18T11:58:43;5.63;;;1.63;;
73627;SDS011;61923;51.846;5.856;2023-02-18T12:01:14;5.80;;;1.45;;
73627;SDS011;61923;51.846;5.856;2023-02-18T12:03:55;6.15;;;1.92;;
73627;SDS011;61923;51.846;5.856;2023-02-18T12:06:36;5.03;;;1.33;;
73627;SDS011;61923;51.846;5.856;2023-02-18T12:09:34;3.50;;;1.45;;
73627;SDS011;61923;51.846;5.856;2023-02-18T12:12:05;10.27;;;1.95;;
73627;SDS011;61923;51.846;5.856;2023-02-18T12:15:04;4.95;;;1.05;;
73627;SDS011;61923;51.846;5.856;2023-02-18T12:25:38;1.90;;;1.10;;
73627;SDS011;61923;51.846;5.856;2023-02-18T12:38:36;2.50;;;1.33;;
73627;SDS011;61923;51.846;5.856;2023-02-18T12:49:30;5.82;;;1.20;;
73627;SDS011;61923;51.846;5.856;2023-02-18T13:00:49;4.00;;;1.27;;
73627;SDS011;61923;51.846;5.856;2023-02-18T13:04:00;4.38;;;1.40;;
73627;SDS011;61923;51.846;5.856;2023-02-18T13:18:02;2.08;;;0.90;;
73627;SDS011;61923;51.846;5.856;2023-02-18T13:20:40;3.28;;;1.10;;
73627;SDS011;61923;51.846;5.856;2023-02-18T13:23:18;4.60;;;1.20;;
73627;SDS011;61923;51.846;5.856;2023-02-18T13:25:50;3.28;;;0.93;;
73627;SDS011;61923;51.846;5.856;2023-02-18T13:33:51;3.05;;;1.10;;
73627;SDS011;61923;51.846;5.856;2023-02-18T13:39:35;3.35;;;1.02;;
73627;SDS011;61923;51.846;5.856;2023-02-18T13:47:15;4.07;;;1.10;;
73627;SDS011;61923;51.846;5.856;2023-02-18T13:55:25;3.65;;;0.80;;
73627;SDS011;61923;51.846;5.856;2023-02-18T13:57:59;3.60;;;1.05;;
73627;SDS011;61923;51.846;5.856;2023-02-18T14:03:00;5.75;;;1.38;;
73627;SDS011;61923;51.846;5.856;2023-02-18T14:08:12;3.60;;;1.20;;
73627;SDS011;61923;51.846;5.856;2023-02-18T14:10:39;3.78;;;0.95;;
73627;SDS011;61923;51.846;5.856;2023-02-18T14:13:25;4.65;;;0.95;;
73627;SDS011;61923;51.846;5.856;2023-02-18T14:16:07;3.20;;;1.25;;
73627;SDS011;61923;51.846;5.856;2023-02-18T14:36:39;3.63;;;1.25;;
73627;SDS011;61923;51.846;5.856;2023-02-18T14:50:29;1.98;;;1.00;;
73627;SDS011;61923;51.846;5.856;2023-02-18T14:52:58;2.25;;;0.80;;
73627;SDS011;61923;51.846;5.856;2023-02-18T14:55:30;1.55;;;0.70;;
73627;SDS011;61923;51.846;5.856;2023-02-18T14:58:02;2.42;;;1.10;;
73627;SDS011;61923;51.846;5.856;2023-02-18T15:00:33;3.72;;;1.10;;
73627;SDS011;61923;51.846;5.856;2023-02-18T15:03:03;2.67;;;1.20;;
73627;SDS011;61923;51.846;5.856;2023-02-18T15:05:37;1.88;;;0.90;;
73627;SDS011;61923;51.846;5.856;2023-02-18T15:13:13;1.92;;;0.80;;
73627;SDS011;61923;51.846;5.856;2023-02-18T15:16:15;1.83;;;0.70;;
73627;SDS011;61923;51.846;5.856;2023-02-18T15:18:52;4.38;;;1.17;;
73627;SDS011;61923;51.846;5.856;2023-02-18T15:21:21;4.53;;;0.95;;
73627;SDS011;61923;51.846;5.856;2023-02-18T15:23:51;4.22;;;0.88;;
73627;SDS011;61923;51.846;5.856;2023-02-18T15:26:17;2.38;;;1.27;;
73627;SDS011;61923;51.846;5.856;2023-02-18T15:28:57;2.88;;;1.08;;
73627;SDS011;61923;51.846;5.856;2023-02-18T15:31:29;4.75;;;0.90;;
73627;SDS011;61923;51.846;5.856;2023-02-18T15:33:59;3.20;;;1.17;;
73627;SDS011;61923;51.846;5.856;2023-02-18T15:36:25;2.20;;;1.00;;
73627;SDS011;61923;51.846;5.856;2023-02-18T15:41:17;4.40;;;1.20;;
73627;SDS011;61923;51.846;5.856;2023-02-18T15:43:57;1.23;;;0.70;;
73627;SDS011;61923;51.846;5.856;2023-02-18T15:46:28;3.90;;;0.93;;
73627;SDS011;61923;51.846;5.856;2023-02-18T15:51:24;3.08;;;1.25;;
73627;SDS011;61923;51.846;5.856;2023-02-18T15:54:00;4.38;;;1.13;;
73627;SDS011;61923;51.846;5.856;2023-02-18T15:59:15;2.40;;;0.93;;
73627;SDS011;61923;51.846;5.856;2023-02-18T16:05:25;2.80;;;1.05;;
73627;SDS011;61923;51.846;5.856;2023-02-18T16:07:59;2.55;;;0.73;;
73627;SDS011;61923;51.846;5.856;2023-02-18T16:13:00;2.83;;;0.93;;
73627;SDS011;61923;51.846;5.856;2023-02-18T16:15:30;3.92;;;1.15;;
73627;SDS011;61923;51.846;5.856;2023-02-18T16:18:01;3.10;;;0.90;;
73627;SDS011;61923;51.846;5.856;2023-02-18T16:23:10;2.70;;;0.70;;
73627;SDS011;61923;51.846;5.856;2023-02-18T16:28:11;3.25;;;0.90;;
73627;SDS011;61923;51.846;5.856;2023-02-18T16:30:40;2.00;;;0.90;;
73627;SDS011;61923;51.846;5.856;2023-02-18T16:33:07;3.20;;;1.08;;
73627;SDS011;61923;51.846;5.856;2023-02-18T16:35:33;2.72;;;0.85;;
73627;SDS011;61923;51.846;5.856;2023-02-18T16:37:59;4.80;;;0.80;;
73627;SDS011;61923;51.846;5.856;2023-02-18T16:40:32;1.50;;;0.63;;
73627;SDS011;61923;51.846;5.856;2023-02-18T16:43:08;1.20;;;0.80;;
73627;SDS011;61923;51.846;5.856;2023-02-18T16:45:42;2.17;;;1.00;;
73627;SDS011;61923;51.846;5.856;2023-02-18T16:50:57;3.60;;;1.02;;
73627;SDS011;61923;51.846;5.856;2023-02-18T16:53:26;3.50;;;1.00;;
73627;SDS011;61923;51.846;5.856;2023-02-18T16:55:51;1.40;;;0.73;;
73627;SDS011;61923;51.846;5.856;2023-02-18T16:58:16;3.38;;;0.90;;
73627;SDS011;61923;51.846;5.856;2023-02-18T17:00:43;2.00;;;1.10;;
73627;SDS011;61923;51.846;5.856;2023-02-18T17:03:10;2.13;;;1.00;;
73627;SDS011;61923;51.846;5.856;2023-02-18T17:05:37;2.55;;;0.77;;
73627;SDS011;61923;51.846;5.856;2023-02-18T17:08:26;2.53;;;0.95;;
73627;SDS011;61923;51.846;5.856;2023-02-18T17:10:52;2.28;;;0.75;;
73627;SDS011;61923;51.846;5.856;2023-02-18T17:13:20;2.78;;;0.75;;
73627;SDS011;61923;51.846;5.856;2023-02-18T17:15:48;3.00;;;0.90;;
73627;SDS011;61923;51.846;5.856;2023-02-18T17:18:15;1.80;;;0.90;;
73627;SDS011;61923;51.846;5.856;2023-02-18T17:23:06;1.83;;;0.63;;
73627;SDS011;61923;51.846;5.856;2023-02-18T17:25:35;3.55;;;1.10;;
73627;SDS011;61923;51.846;5.856;2023-02-18T17:28:03;2.90;;;1.02;;
73627;SDS011;61923;51.846;5.856;2023-02-18T17:30:30;3.00;;;0.85;;
73627;SDS011;61923;51.846;5.856;2023-02-18T17:32:59;3.97;;;1.02;;
73627;SDS011;61923;51.846;5.856;2023-02-18T17:35:25;2.35;;;0.90;;
73627;SDS011;61923;51.846;5.856;2023-02-18T17:37:51;2.05;;;0.75;;
73627;SDS011;61923;51.846;5.856;2023-02-18T17:40:18;2.22;;;1.00;;
73627;SDS011;61923;51.846;5.856;2023-02-18T17:42:45;2.80;;;0.80;;
73627;SDS011;61923;51.846;5.856;2023-02-18T17:47:45;2.97;;;1.10;;
73627;SDS011;61923;51.846;5.856;2023-02-18T17:50:12;2.63;;;0.82;;
73627;SDS011;61923;51.846;5.856;2023-02-18T17:52:37;1.38;;;0.60;;
73627;SDS011;61923;51.846;5.856;2023-02-18T17:55:37;2.90;;;1.27;;
73627;SDS011;61923;51.846;5.856;2023-02-18T17:57:56;3.05;;;1.02;;
73627;SDS011;61923;51.846;5.856;2023-02-18T18:00:26;2.67;;;1.20;;
73627;SDS011;61923;51.846;5.856;2023-02-18T18:02:57;2.90;;;0.75;;
73627;SDS011;61923;51.846;5.856;2023-02-18T18:05:24;2.65;;;1.00;;
73627;SDS011;61923;51.846;5.856;2023-02-18T18:07:52;2.40;;;0.70;;
73627;SDS011;61923;51.846;5.856;2023-02-18T18:12:46;3.28;;;0.93;;
73627;SDS011;61923;51.846;5.856;2023-02-18T18:18:17;2.33;;;0.77;;
73627;SDS011;61923;51.846;5.856;2023-02-18T18:20:44;1.77;;;0.80;;
73627;SDS011;61923;51.846;5.856;2023-02-18T18:23:12;1.48;;;0.68;;
73627;SDS011;61923;51.846;5.856;2023-02-18T18:25:41;2.50;;;1.00;;
73627;SDS011;61923;51.846;5.856;2023-02-18T18:28:12;2.22;;;0.82;;
73627;SDS011;61923;51.846;5.856;2023-02-18T18:30:40;1.52;;;0.60;;
73627;SDS011;61923;51.846;5.856;2023-02-18T18:33:40;3.60;;;0.82;;
73627;SDS011;61923;51.846;5.856;2023-02-18T18:35:59;4.93;;;1.00;;
73627;SDS011;61923;51.846;5.856;2023-02-18T18:38:26;2.60;;;0.95;;
73627;SDS011;61923;51.846;5.856;2023-02-18T18:40:52;1.38;;;0.70;;
73627;SDS011;61923;51.846;5.856;2023-02-18T18:43:20;3.10;;;0.80;;
73627;SDS011;61923;51.846;5.856;2023-02-18T18:45:48;1.70;;;0.77;;
73627;SDS011;61923;51.846;5.856;2023-02-18T18:48:14;1.67;;;0.70;;
73627;SDS011;61923;51.846;5.856;2023-02-18T18:50:40;2.10;;;0.77;;
73627;SDS011;61923;51.846;5.856;2023-02-18T18:53:06;3.15;;;1.00;;
73627;SDS011;61923;51.846;5.856;2023-02-18T18:55:41;2.85;;;0.85;;
73627;SDS011;61923;51.846;5.856;2023-02-18T19:00:36;3.17;;;1.10;;
73627;SDS011;61923;51.846;5.856;2023-02-18T19:03:06;4.47;;;1.17;;
73627;SDS011;61923;51.846;5.856;2023-02-18T19:05:36;2.72;;;0.90;;
73627;SDS011;61923;51.846;5.856;2023-02-18T19:08:03;2.85;;;0.80;;
73627;SDS011;61923;51.846;5.856;2023-02-18T19:10:31;2.47;;;0.77;;
73627;SDS011;61923;51.846;5.856;2023-02-18T19:13:05;2.55;;;0.70;;
73627;SDS011;61923;51.846;5.856;2023-02-18T19:15:33;2.95;;;0.90;;
73627;SDS011;61923;51.846;5.856;2023-02-18T19:17:59;2.35;;;0.82;;
73627;SDS011;61923;51.846;5.856;2023-02-18T19:20:25;3.08;;;0.82;;
73627;SDS011;61923;51.846;5.856;2023-02-18T19:22:54;1.92;;;0.70;;
73627;SDS011;61923;51.846;5.856;2023-02-18T19:25:20;1.85;;;0.77;;
73627;SDS011;61923;51.846;5.856;2023-02-18T19:27:46;1.52;;;0.80;;
73627;SDS011;61923;51.846;5.856;2023-02-18T19:30:23;1.90;;;0.73;;
73627;SDS011;61923;51.846;5.856;2023-02-18T19:32:50;2.30;;;0.80;;
73627;SDS011;61923;51.846;5.856;2023-02-18T19:35:18;2.33;;;0.85;;
73627;SDS011;61923;51.846;5.856;2023-02-18T19:40:11;0.95;;;0.70;;
73627;SDS011;61923;51.846;5.856;2023-02-18T19:42:38;1.48;;;0.88;;
73627;SDS011;61923;51.846;5.856;2023-02-18T19:45:03;2.55;;;0.80;;
73627;SDS011;61923;51.846;5.856;2023-02-18T19:47:29;2.28;;;1.08;;
73627;SDS011;61923;51.846;5.856;2023-02-18T19:49:56;2.13;;;0.90;;
73627;SDS011;61923;51.846;5.856;2023-02-18T19:52:22;1.52;;;1.00;;
73627;SDS011;61923;51.846;5.856;2023-02-18T19:54:48;1.10;;;0.70;;
73627;SDS011;61923;51.846;5.856;2023-02-18T19:57:13;1.60;;;0.90;;
73627;SDS011;61923;51.846;5.856;2023-02-18T19:59:39;3.13;;;0.90;;
73627;SDS011;61923;51.846;5.856;2023-02-18T20:02:04;2.95;;;1.00;;
73627;SDS011;61923;51.846;5.856;2023-02-18T20:04:30;2.10;;;0.80;;
73627;SDS011;61923;51.846;5.856;2023-02-18T20:06:57;2.17;;;1.00;;
73627;SDS011;61923;51.846;5.856;2023-02-18T20:09:22;2.70;;;0.90;;
73627;SDS011;61923;51.846;5.856;2023-02-18T20:14:13;1.10;;;0.70;;
73627;SDS011;61923;51.846;5.856;2023-02-18T20:19:04;1.65;;;0.70;;
73627;SDS011;61923;51.846;5.856;2023-02-18T20:21:29;1.83;;;1.00;;
73627;SDS011;61923;51.846;5.856;2023-02-18T20:23:55;1.92;;;1.05;;
73627;SDS011;61923;51.846;5.856;2023-02-18T20:26:20;2.38;;;0.80;;